createdAt,value
2024-03-09T00:00:39.735Z,27.02
2024-03-09T00:03:31.332Z,36.92
2024-03-09T00:06:01.057Z,36.10
2024-03-09T00:08:28.885Z,26.88
2024-03-09T00:10:56.185Z,29.85
2024-03-09T00:13:24.109Z,29.30
2024-03-09T00:15:52.494Z,23.60
2024-03-09T00:18:29.217Z,30.83
2024-03-09T00:21:03.702Z,28.25
2024-03-09T00:23:31.354Z,26.08
2024-03-09T00:25:59.457Z,21.30
2024-03-09T00:28:30.158Z,25.92
2024-03-09T00:30:57.967Z,19.90
2024-03-09T00:33:25.843Z,24.23
2024-03-09T00:35:55.676Z,23.58
2024-03-09T00:38:23.401Z,23.40
2024-03-09T00:40:50.981Z,25.20
2024-03-09T00:43:18.207Z,31.23
2024-03-09T00:45:46.066Z,27.60
2024-03-09T00:48:14.653Z,32.40
2024-03-09T00:50:43.626Z,33.85
2024-03-09T00:53:11.059Z,33.53
2024-03-09T00:55:38.828Z,34.67
2024-03-09T00:58:08.661Z,25.83
2024-03-09T01:00:38.459Z,22.98
2024-03-09T01:03:05.897Z,28.75
2024-03-09T01:05:34.260Z,24.63
2024-03-09T01:08:02.429Z,23.83
2024-03-09T01:10:30.201Z,26.50
2024-03-09T01:12:57.696Z,31.30
2024-03-09T01:15:25.482Z,22.90
2024-03-09T01:17:53.874Z,28.30
2024-03-09T01:20:21.769Z,27.98
2024-03-09T01:22:50.550Z,30.02
2024-03-09T01:25:18.575Z,30.63
2024-03-09T01:27:46.072Z,28.63
2024-03-09T01:30:13.950Z,19.58
2024-03-09T01:32:41.750Z,28.42
2024-03-09T01:35:10.846Z,29.30
2024-03-09T01:37:38.758Z,30.52
2024-03-09T01:40:07.881Z,26.35
2024-03-09T01:42:35.392Z,29.08
2024-03-09T01:45:07.098Z,30.40
2024-03-09T01:47:35.374Z,31.77
2024-03-09T01:50:03.828Z,30.52
2024-03-09T01:52:34.520Z,33.38
2024-03-09T01:55:05.936Z,36.08
2024-03-09T01:57:36.709Z,37.95
2024-03-09T02:00:06.425Z,42.00
2024-03-09T02:02:35.099Z,38.63
2024-03-09T02:05:12.143Z,27.70
2024-03-09T02:07:41.841Z,33.95
2024-03-09T02:10:13.428Z,33.60
2024-03-09T02:12:44.132Z,26.20
2024-03-09T02:15:19.023Z,24.87
2024-03-09T02:17:49.426Z,15.68
2024-03-09T02:20:18.889Z,15.97
2024-03-09T02:22:48.823Z,16.40
2024-03-09T02:25:19.723Z,19.77
2024-03-09T02:27:47.410Z,18.30
2024-03-09T02:30:15.340Z,22.70
2024-03-09T02:32:44.156Z,18.67
2024-03-09T02:35:12.260Z,17.55
2024-03-09T02:37:40.421Z,15.27
2024-03-09T02:40:08.941Z,15.38
2024-03-09T02:42:40.425Z,16.02
2024-03-09T02:45:08.843Z,14.43
2024-03-09T02:47:36.403Z,18.90
2024-03-09T02:50:05.155Z,17.85
2024-03-09T02:52:32.672Z,18.20
2024-03-09T02:55:00.396Z,19.55
2024-03-09T02:57:27.910Z,14.60
2024-03-09T02:59:55.549Z,15.10
2024-03-09T03:02:41.500Z,15.52
2024-03-09T03:05:09.681Z,13.45
2024-03-09T03:07:37.109Z,15.40
2024-03-09T03:10:05.033Z,18.02
2024-03-09T03:12:32.567Z,15.23
2024-03-09T03:15:01.001Z,16.13
2024-03-09T03:17:28.526Z,16.73
2024-03-09T03:19:56.235Z,17.63
2024-03-09T03:22:25.573Z,21.10
2024-03-09T03:24:53.187Z,22.25
2024-03-09T03:27:22.732Z,22.25
2024-03-09T03:29:52.412Z,18.50
2024-03-09T03:32:19.869Z,18.73
2024-03-09T03:34:48.322Z,20.67
2024-03-09T03:37:19.343Z,18.40
2024-03-09T03:39:47.031Z,18.98
2024-03-09T03:42:14.628Z,20.60
2024-03-09T03:44:43.372Z,21.15
2024-03-09T03:47:10.641Z,23.77
2024-03-09T03:49:38.238Z,19.88
2024-03-09T03:52:05.695Z,21.85
2024-03-09T03:54:33.317Z,19.45
2024-03-09T03:57:00.642Z,21.67
2024-03-09T03:59:28.418Z,22.55
2024-03-09T04:01:55.865Z,24.30
2024-03-09T04:04:23.456Z,23.75
2024-03-09T04:06:51.079Z,29.88
2024-03-09T04:09:18.985Z,24.23
2024-03-09T04:11:50.709Z,27.42
2024-03-09T04:14:18.698Z,27.48
2024-03-09T04:16:46.501Z,29.27
2024-03-09T04:19:15.109Z,26.23
2024-03-09T04:21:42.455Z,27.30
2024-03-09T04:24:11.107Z,28.55
2024-03-09T04:26:38.681Z,27.60
2024-03-09T04:29:06.665Z,28.45
2024-03-09T04:31:34.371Z,33.42
2024-03-09T04:34:03.932Z,26.77
2024-03-09T04:36:31.254Z,30.05
2024-03-09T04:39:02.333Z,25.55
2024-03-09T04:41:30.237Z,24.13
2024-03-09T04:43:57.899Z,24.65
2024-03-09T04:46:25.330Z,26.30
2024-03-09T04:48:52.993Z,26.10
2024-03-09T04:51:20.496Z,27.48
2024-03-09T04:53:48.380Z,26.05
2024-03-09T04:56:16.263Z,29.33
2024-03-09T04:58:44.013Z,28.48
2024-03-09T05:01:11.709Z,34.92
2024-03-09T05:03:39.288Z,27.60
2024-03-09T05:06:07.477Z,33.03
2024-03-09T05:08:35.179Z,32.08
2024-03-09T05:11:02.625Z,31.17
2024-03-09T05:13:30.469Z,34.40
2024-03-09T05:15:57.910Z,36.55
2024-03-09T05:18:25.704Z,43.67
2024-03-09T05:20:53.252Z,40.15
2024-03-09T05:23:22.041Z,43.88
2024-03-09T05:25:49.694Z,38.08
2024-03-09T05:28:21.386Z,34.38
2024-03-09T05:30:48.819Z,31.52
2024-03-09T05:33:16.607Z,34.45
2024-03-09T05:35:44.228Z,35.25
2024-03-09T05:38:12.198Z,34.72
2024-03-09T05:40:39.894Z,34.28
2024-03-09T05:43:13.629Z,30.23
2024-03-09T05:45:42.692Z,35.55
2024-03-09T05:48:12.395Z,41.10
2024-03-09T05:50:40.242Z,43.17
2024-03-09T05:53:10.034Z,45.45
2024-03-09T05:55:40.491Z,40.75
2024-03-09T05:58:08.873Z,40.75
2024-03-09T06:00:37.527Z,40.92
2024-03-09T06:03:09.263Z,34.42
2024-03-09T06:05:37.197Z,37.47
2024-03-09T06:08:05.413Z,31.55
2024-03-09T06:10:36.503Z,27.35
2024-03-09T06:13:06.836Z,32.72
2024-03-09T06:15:34.668Z,34.67
2024-03-09T06:18:02.852Z,32.00
2024-03-09T06:20:33.400Z,35.58
2024-03-09T06:23:01.943Z,39.88
2024-03-09T06:25:31.175Z,35.00
2024-03-09T06:28:04.352Z,35.50
2024-03-09T06:30:33.342Z,34.78
2024-03-09T06:33:03.603Z,35.80
2024-03-09T06:35:33.766Z,41.88
2024-03-09T06:38:03.403Z,36.20
2024-03-09T06:40:33.564Z,40.08
2024-03-09T06:43:03.078Z,36.17
2024-03-09T06:45:30.626Z,37.00
2024-03-09T06:47:59.467Z,39.25
2024-03-09T06:50:31.341Z,35.88
2024-03-09T06:53:02.490Z,41.67
2024-03-09T06:55:31.097Z,38.92
2024-03-09T06:58:04.134Z,39.05
2024-03-09T07:00:36.332Z,37.80
2024-03-09T07:03:08.644Z,38.63
2024-03-09T07:05:37.351Z,34.50
2024-03-09T07:08:07.417Z,34.72
2024-03-09T07:10:37.481Z,35.15
2024-03-09T07:13:08.554Z,35.50
2024-03-09T07:15:37.337Z,32.85
2024-03-09T07:18:12.298Z,30.33
2024-03-09T07:20:40.728Z,34.10
2024-03-09T07:23:08.621Z,32.83
2024-03-09T07:25:36.804Z,32.08
2024-03-09T07:28:04.819Z,37.42
2024-03-09T07:30:34.447Z,33.05
2024-03-09T07:33:03.304Z,40.40
2024-03-09T07:35:31.703Z,37.10
2024-03-09T07:38:03.288Z,44.47
2024-03-09T07:40:31.716Z,40.13
2024-03-09T07:42:59.564Z,38.95
2024-03-09T07:45:31.502Z,39.38
2024-03-09T07:48:00.854Z,42.33
2024-03-09T07:50:29.460Z,35.80
2024-03-09T07:52:58.757Z,34.83
2024-03-09T07:55:28.374Z,40.45
2024-03-09T07:58:09.692Z,39.05
2024-03-09T08:00:46.969Z,37.75
2024-03-09T08:03:15.554Z,37.28
2024-03-09T08:05:43.717Z,42.65
2024-03-09T08:08:14.221Z,38.42
2024-03-09T08:10:48.874Z,35.60
2024-03-09T08:13:21.321Z,38.45
2024-03-09T08:15:48.987Z,34.15
2024-03-09T08:18:17.330Z,38.35
2024-03-09T08:20:44.747Z,41.83
2024-03-09T08:23:14.015Z,41.78
2024-03-09T08:25:43.775Z,34.20
2024-03-09T08:28:11.758Z,41.22
2024-03-09T08:30:39.411Z,36.78
2024-03-09T08:33:07.370Z,42.20
2024-03-09T08:35:35.032Z,40.08
2024-03-09T08:38:03.043Z,39.28
2024-03-09T08:40:33.656Z,41.28
2024-03-09T08:43:01.705Z,37.38
2024-03-09T08:45:30.765Z,39.97
2024-03-09T08:47:59.012Z,39.08
2024-03-09T08:50:27.140Z,33.10
2024-03-09T08:52:57.131Z,37.08
2024-03-09T08:55:25.292Z,35.70
2024-03-09T08:57:53.228Z,36.45
2024-03-09T09:00:24.445Z,39.85
2024-03-09T09:02:52.644Z,36.45
2024-03-09T09:05:23.026Z,32.75
2024-03-09T09:07:53.123Z,35.58
2024-03-09T09:10:24.068Z,33.70
2024-03-09T09:12:51.787Z,32.75
2024-03-09T09:15:20.697Z,33.53
2024-03-09T09:17:50.495Z,31.55
2024-03-09T09:20:20.844Z,33.38
2024-03-09T09:22:49.870Z,34.33
2024-03-09T09:25:20.886Z,34.67
2024-03-09T09:27:48.535Z,31.67
2024-03-09T09:30:16.257Z,33.97
2024-03-09T09:32:44.966Z,32.42
2024-03-09T09:35:13.910Z,35.95
2024-03-09T09:37:41.998Z,29.10
2024-03-09T09:40:10.313Z,28.98
2024-03-09T09:42:38.690Z,30.80
2024-03-09T09:45:06.910Z,25.42
2024-03-09T09:47:35.590Z,31.23
2024-03-09T09:50:03.968Z,27.77
2024-03-09T09:52:34.369Z,25.75
2024-03-09T09:55:03.552Z,26.75
2024-03-09T09:57:33.170Z,26.58
2024-03-09T10:00:00.832Z,24.92
2024-03-09T10:02:28.952Z,25.85
2024-03-09T10:04:57.141Z,27.42
2024-03-09T10:07:25.995Z,25.42
2024-03-09T10:09:53.514Z,28.58
2024-03-09T10:12:25.115Z,27.83
2024-03-09T10:14:53.738Z,25.90
2024-03-09T10:17:22.503Z,27.42
2024-03-09T10:19:50.633Z,27.15
2024-03-09T10:22:18.417Z,26.45
2024-03-09T10:24:57.752Z,28.38
2024-03-09T10:27:29.133Z,29.38
2024-03-09T10:30:12.903Z,30.13
2024-03-09T10:32:45.009Z,31.15
2024-03-09T10:35:13.893Z,30.10
2024-03-09T10:37:44.162Z,30.92
2024-03-09T10:40:16.300Z,33.22
2024-03-09T10:42:47.525Z,31.77
2024-03-09T10:45:17.538Z,33.25
2024-03-09T10:47:51.468Z,33.35
2024-03-09T10:50:25.135Z,32.03
2024-03-09T10:53:11.722Z,32.15
2024-03-09T10:56:01.123Z,32.03
2024-03-09T10:58:30.146Z,30.15
2024-03-09T11:00:58.067Z,27.35
2024-03-09T11:03:27.987Z,26.88
2024-03-09T11:05:56.107Z,22.85
2024-03-09T11:08:25.013Z,25.77
2024-03-09T11:10:53.216Z,29.42
2024-03-09T11:13:21.595Z,30.33
2024-03-09T11:15:53.639Z,28.98
2024-03-09T11:18:24.150Z,31.38
2024-03-09T11:20:53.813Z,30.23
2024-03-09T11:23:24.941Z,32.03
2024-03-09T11:25:57.122Z,28.63
2024-03-09T11:28:33.991Z,29.30
2024-03-09T11:31:15.845Z,33.58
2024-03-09T11:33:51.503Z,36.45
2024-03-09T11:36:40.348Z,34.90
2024-03-09T11:39:09.094Z,33.42
2024-03-09T11:41:39.834Z,34.88
2024-03-09T11:44:07.725Z,32.10
2024-03-09T11:46:38.578Z,33.83
2024-03-09T11:49:07.156Z,30.77
2024-03-09T11:51:36.460Z,39.42
2024-03-09T11:54:17.068Z,32.20
2024-03-09T11:56:44.476Z,33.25
2024-03-09T11:59:13.988Z,34.83
2024-03-09T12:01:41.810Z,37.55
2024-03-09T12:04:11.333Z,44.90
2024-03-09T12:06:41.908Z,46.28
2024-03-09T12:09:12.675Z,40.37
2024-03-09T12:11:47.763Z,36.90
2024-03-09T12:14:17.472Z,35.97
2024-03-09T12:16:50.248Z,35.72
2024-03-09T12:19:18.925Z,43.58
2024-03-09T12:21:46.799Z,39.78
2024-03-09T12:24:15.232Z,42.50
2024-03-09T12:26:42.982Z,42.35
2024-03-09T12:29:14.149Z,38.80
2024-03-09T12:31:44.382Z,47.05
2024-03-09T12:34:12.553Z,48.40
2024-03-09T12:36:53.608Z,55.65
2024-03-09T12:39:21.891Z,44.80
2024-03-09T12:41:54.889Z,40.00
2024-03-09T12:44:24.132Z,48.28
2024-03-09T12:46:51.825Z,43.47
2024-03-09T12:49:20.260Z,38.90
2024-03-09T12:51:53.181Z,41.83
2024-03-09T12:54:21.340Z,48.38
2024-03-09T12:56:50.778Z,53.80
2024-03-09T12:59:28.334Z,48.13
2024-03-09T13:01:57.106Z,51.47
2024-03-09T13:04:27.392Z,44.40
2024-03-09T13:06:58.367Z,49.08
2024-03-09T13:09:34.204Z,50.30
2024-03-09T13:12:06.541Z,48.45
2024-03-09T13:17:07.553Z,43.90
2024-03-09T13:19:38.375Z,48.45
2024-03-09T13:22:08.090Z,41.80
2024-03-09T13:24:36.747Z,42.45
2024-03-09T13:27:04.240Z,45.28
2024-03-09T13:29:32.436Z,39.70
2024-03-09T13:32:00.667Z,43.20
2024-03-09T13:34:32.362Z,35.10
2024-03-09T13:37:01.040Z,33.88
2024-03-09T13:39:29.566Z,32.47
2024-03-09T13:41:58.906Z,32.47
2024-03-09T13:44:26.762Z,34.65
2024-03-09T13:46:54.356Z,38.90
2024-03-09T13:49:22.169Z,31.60
2024-03-09T13:51:49.866Z,40.80
2024-03-09T13:54:19.723Z,33.75
2024-03-09T13:56:47.986Z,34.13
2024-03-09T13:59:16.835Z,37.25
2024-03-09T14:01:46.204Z,45.28
2024-03-09T14:04:15.549Z,63.17
2024-03-09T14:06:57.347Z,51.17
2024-03-09T14:09:33.775Z,31.58
2024-03-09T14:12:01.612Z,42.58
2024-03-09T14:14:29.774Z,38.25
2024-03-09T14:16:57.484Z,55.20
2024-03-09T14:19:25.296Z,37.10
2024-03-09T14:21:54.484Z,33.15
2024-03-09T14:24:22.210Z,33.33
2024-03-09T14:26:49.728Z,32.83
2024-03-09T14:29:21.717Z,35.40
2024-03-09T14:34:20.195Z,41.60
2024-03-09T14:36:47.826Z,36.67
2024-03-09T14:39:18.846Z,35.10
2024-03-09T14:41:46.788Z,36.08
2024-03-09T14:44:14.689Z,33.58
2024-03-09T14:46:42.398Z,31.90
2024-03-09T14:49:10.902Z,35.03
2024-03-09T14:51:40.678Z,33.53
2024-03-09T14:54:08.398Z,35.80
2024-03-09T14:56:35.854Z,31.42
2024-03-09T14:59:11.914Z,34.80
2024-03-09T15:01:39.546Z,31.77
2024-03-09T15:04:10.085Z,30.20
2024-03-09T15:06:37.864Z,31.65
2024-03-09T15:09:10.220Z,30.25
2024-03-09T15:14:06.209Z,31.70
2024-03-09T15:16:33.759Z,32.67
2024-03-09T15:19:01.399Z,31.25
2024-03-09T15:21:28.899Z,33.33
2024-03-09T15:23:58.813Z,34.08
2024-03-09T15:26:30.171Z,34.17
2024-03-09T15:28:59.848Z,29.92
2024-03-09T15:31:28.591Z,29.80
2024-03-09T15:33:57.051Z,34.05
2024-03-09T15:36:25.708Z,33.85
2024-03-09T15:38:55.641Z,39.58
2024-03-09T15:41:23.604Z,31.92
2024-03-09T15:43:51.592Z,27.80
2024-03-09T15:46:20.220Z,30.55
2024-03-09T15:48:49.888Z,31.40
2024-03-09T15:51:19.915Z,28.30
2024-03-09T15:53:48.171Z,31.98
2024-03-09T15:56:21.614Z,39.30
2024-03-09T15:58:50.970Z,34.03
2024-03-09T16:01:23.457Z,35.25
2024-03-09T16:03:52.707Z,35.78
2024-03-09T16:06:20.257Z,35.30
2024-03-09T16:08:48.230Z,42.78
2024-03-09T16:11:16.039Z,40.72
2024-03-09T16:13:43.985Z,34.88
2024-03-09T16:16:15.383Z,38.90
2024-03-09T16:21:11.350Z,35.78
2024-03-09T16:23:41.256Z,39.83
2024-03-09T16:26:09.738Z,35.80
2024-03-09T16:28:37.979Z,37.03
2024-03-09T16:31:06.389Z,37.92
2024-03-09T16:33:34.796Z,39.92
2024-03-09T16:36:03.785Z,36.55
2024-03-09T16:38:33.059Z,40.55
2024-03-09T16:41:03.020Z,41.75
2024-03-09T16:43:35.090Z,40.97
2024-03-09T16:46:07.708Z,39.92
2024-03-09T16:48:37.138Z,37.20
2024-03-09T16:51:09.260Z,39.10
2024-03-09T16:53:41.135Z,39.22
2024-03-09T16:56:10.913Z,38.47
2024-03-09T16:58:40.891Z,31.60
2024-03-09T17:01:08.977Z,36.60
2024-03-09T17:03:36.679Z,30.58
2024-03-09T17:06:04.454Z,30.30
2024-03-09T17:08:32.378Z,29.08
2024-03-09T17:11:00.123Z,32.03
2024-03-09T17:13:28.465Z,31.02
2024-03-09T17:15:59.835Z,32.30
2024-03-09T17:18:29.312Z,29.33
2024-03-09T17:20:56.677Z,33.45
2024-03-09T17:23:28.718Z,37.85
2024-03-09T17:25:56.334Z,34.58
2024-03-09T17:28:24.263Z,33.53
2024-03-09T17:30:51.979Z,29.52
2024-03-09T17:33:19.751Z,35.40
2024-03-09T17:35:47.204Z,33.13
2024-03-09T17:38:15.034Z,29.45
2024-03-09T17:40:48.593Z,33.80
2024-03-09T17:43:17.514Z,27.60
2024-03-09T17:45:46.924Z,30.88
2024-03-09T17:48:15.134Z,29.42
2024-03-09T17:50:43.450Z,30.88
2024-03-09T17:53:11.464Z,31.95
2024-03-09T17:55:39.402Z,30.25
2024-03-09T17:58:10.566Z,28.33
2024-03-09T18:00:40.126Z,31.38
2024-03-09T18:03:15.064Z,32.38
2024-03-09T18:05:42.690Z,31.48
2024-03-09T18:08:11.465Z,32.38
2024-03-09T18:10:41.753Z,37.33
2024-03-09T18:13:14.678Z,28.73
2024-03-09T18:15:45.467Z,30.98
2024-03-09T18:18:14.621Z,39.63
2024-03-09T18:20:43.576Z,35.90
2024-03-09T18:23:12.566Z,35.83
2024-03-09T18:25:41.092Z,36.35
2024-03-09T18:28:13.583Z,31.85
2024-03-09T18:30:41.116Z,36.30
2024-03-09T18:33:14.412Z,38.25
2024-03-09T18:35:43.444Z,34.25
2024-03-09T18:38:15.449Z,39.28
2024-03-09T18:43:11.027Z,33.40
2024-03-09T18:45:38.431Z,38.75
2024-03-09T18:48:06.497Z,40.10
2024-03-09T18:50:34.125Z,42.75
2024-03-09T18:53:03.259Z,37.08
2024-03-09T18:55:31.879Z,39.53
2024-03-09T18:58:01.231Z,40.17
2024-03-09T19:00:32.741Z,39.45
2024-03-09T19:05:30.215Z,39.70
2024-03-09T19:08:01.164Z,43.72
2024-03-09T19:10:29.330Z,39.58
2024-03-09T19:12:57.150Z,36.90
2024-03-09T19:15:27.090Z,40.55
2024-03-09T19:17:55.629Z,38.72
2024-03-09T19:20:35.374Z,40.92
2024-03-09T19:23:04.205Z,41.03
2024-03-09T19:25:32.207Z,39.85
2024-03-09T19:28:00.267Z,41.78
2024-03-09T19:30:30.830Z,44.50
2024-03-09T19:32:59.763Z,38.22
2024-03-09T19:35:29.342Z,46.20
2024-03-09T19:37:59.624Z,40.67
2024-03-09T19:40:28.558Z,40.53
2024-03-09T19:42:59.215Z,37.60
2024-03-09T19:45:31.578Z,37.47
2024-03-09T19:48:00.387Z,38.15
2024-03-09T19:50:33.286Z,43.10
2024-03-09T19:53:01.149Z,42.00
2024-03-09T19:55:30.808Z,41.78
2024-03-09T19:58:00.343Z,40.53
2024-03-09T20:00:33.080Z,43.17
2024-03-09T20:03:01.335Z,41.42
2024-03-09T20:05:37.844Z,45.08
2024-03-09T20:08:06.014Z,41.03
2024-03-09T20:10:34.086Z,41.42
2024-03-09T20:13:02.100Z,43.00
2024-03-09T20:15:30.278Z,41.35
2024-03-09T20:17:59.444Z,42.58
2024-03-09T20:20:29.068Z,43.92
2024-03-09T20:23:01.734Z,46.10
2024-03-09T20:25:29.383Z,38.60
2024-03-09T20:27:57.209Z,45.67
2024-03-09T20:30:25.540Z,41.80
2024-03-09T20:32:53.801Z,43.10
2024-03-09T20:35:21.589Z,39.63
2024-03-09T20:37:49.796Z,38.33
2024-03-09T20:40:19.208Z,39.45
2024-03-09T20:42:53.091Z,40.65
2024-03-09T20:45:22.772Z,42.75
2024-03-09T20:47:51.112Z,42.03
2024-03-09T20:50:22.099Z,43.53
2024-03-09T20:53:00.164Z,41.67
2024-03-09T20:55:31.320Z,45.45
2024-03-09T20:57:59.329Z,46.60
2024-03-09T21:00:29.476Z,46.10
2024-03-09T21:02:58.984Z,48.55
2024-03-09T21:05:26.607Z,45.55
2024-03-09T21:07:54.449Z,47.50
2024-03-09T21:10:23.250Z,44.83
2024-03-09T21:12:51.079Z,49.95
2024-03-09T21:15:19.683Z,49.47
2024-03-09T21:17:48.739Z,48.50
2024-03-09T21:20:17.726Z,46.22
2024-03-09T21:22:46.142Z,47.85
2024-03-09T21:25:14.823Z,50.58
2024-03-09T21:27:44.486Z,54.95
2024-03-09T21:30:15.954Z,50.35
2024-03-09T21:32:48.643Z,50.58
2024-03-09T21:37:47.520Z,49.13
2024-03-09T21:40:16.852Z,48.30
2024-03-09T21:42:45.743Z,49.22
2024-03-09T21:45:15.482Z,47.70
2024-03-09T21:47:47.492Z,48.35
2024-03-09T21:50:18.270Z,53.45
2024-03-09T21:52:50.087Z,55.53
2024-03-09T21:55:17.728Z,55.90
2024-03-09T21:57:45.821Z,56.28
2024-03-09T22:00:24.044Z,57.05
2024-03-09T22:02:58.332Z,60.55
2024-03-09T22:05:27.746Z,56.70
2024-03-09T22:07:58.029Z,54.03
2024-03-09T22:10:26.954Z,56.88
2024-03-09T22:12:57.226Z,56.25
2024-03-09T22:15:28.552Z,63.15
2024-03-09T22:17:57.504Z,56.30
2024-03-09T22:20:25.855Z,59.17
2024-03-09T22:22:54.085Z,54.38
2024-03-09T22:25:21.615Z,59.53
2024-03-09T22:27:50.350Z,57.53
2024-03-09T22:30:18.570Z,58.65
2024-03-09T22:32:47.113Z,57.17
2024-03-09T22:35:16.368Z,59.90
2024-03-09T22:37:45.691Z,63.00
2024-03-09T22:40:17.326Z,58.60
2024-03-09T22:42:45.678Z,58.90
2024-03-09T22:45:16.590Z,64.18
2024-03-09T22:47:46.533Z,59.63
2024-03-09T22:50:26.958Z,64.40
2024-03-09T22:52:55.868Z,60.13
2024-03-09T22:55:25.449Z,66.20
2024-03-09T22:57:53.326Z,54.90
2024-03-09T23:00:20.835Z,63.53
2024-03-09T23:02:48.501Z,58.22
2024-03-09T23:05:16.992Z,56.38
2024-03-09T23:07:48.136Z,65.65
2024-03-09T23:10:15.585Z,62.63
2024-03-09T23:12:45.498Z,63.90
2024-03-09T23:15:17.293Z,64.90
2024-03-09T23:20:28.820Z,65.72
2024-03-09T23:22:59.604Z,66.97
2024-03-09T23:25:27.883Z,65.25
2024-03-09T23:27:56.169Z,64.88
2024-03-09T23:30:26.071Z,70.32
2024-03-09T23:32:56.104Z,69.68
2024-03-09T23:35:24.630Z,71.68
2024-03-09T23:37:52.677Z,64.60
2024-03-09T23:40:21.675Z,69.47
2024-03-09T23:42:49.861Z,72.07
2024-03-09T23:45:18.098Z,73.05
2024-03-09T23:47:46.987Z,75.18
2024-03-09T23:50:18.745Z,70.85
2024-03-09T23:52:50.162Z,67.13
2024-03-09T23:55:19.477Z,70.57
2024-03-09T23:57:49.165Z,67.72
